Time;durP1;ratioP1;P1;durP2;ratioP2;P2;SDS_P1;SDS_P2;PMS_P1;PMS_P2;Temp;Humidity;BMP_temperature;BMP_pressure;BME280_temperature;BME280_humidity;BME280_pressure;Samples;Min_cycle;Max_cycle;Signal;HPM_P1;HPM_P2
2023/07/16 00:00:31;;;;;;;6.70;2.25;;;25.30;81.30;;;;;;5091139;28;20494;-68
2023/07/16 00:02:56;;;;;;;6.55;2.17;;;25.60;81.40;;;;;;5080753;28;20498;-68
2023/07/16 00:05:22;;;;;;;6.55;2.30;;;25.50;81.50;;;;;;5095474;28;20051;-68
2023/07/16 00:07:48;;;;;;;5.28;2.17;;;25.50;84.70;;;;;;5093503;28;20055;-67
2023/07/16 00:10:14;;;;;;;6.78;2.45;;;25.50;81.50;;;;;;5094621;28;20047;-66
2023/07/16 00:12:40;;;;;;;5.50;2.17;;;25.40;81.40;;;;;;5093588;28;20036;-64
2023/07/16 00:15:06;;;;;;;7.43;2.28;;;25.20;81.30;;;;;;5077135;28;20150;-72
2023/07/16 00:17:33;;;;;;;7.28;2.13;;;25.20;81.10;;;;;;5090780;28;20045;-65
2023/07/16 00:19:59;;;;;;;5.50;2.30;;;25.40;81.70;;;;;;5088237;28;20091;-62
2023/07/16 00:22:25;;;;;;;5.40;2.30;;;25.40;81.30;;;;;;5075228;28;20080;-64
2023/07/16 00:24:51;;;;;;;6.03;2.00;;;25.10;81.20;;;;;;5091314;28;20126;-67
2023/07/16 00:27:16;;;;;;;6.50;2.45;;;25.40;81.40;;;;;;5073260;28;20036;-64
2023/07/16 00:29:42;;;;;;;6.75;2.40;;;25.30;81.20;;;;;;5093268;28;20036;-68
2023/07/16 00:32:08;;;;;;;6.93;2.47;;;25.30;84.40;;;;;;5093549;28;20514;-69
2023/07/16 00:34:33;;;;;;;7.75;2.30;;;25.30;81.10;;;;;;5089430;28;20458;-70
2023/07/16 00:37:01;;;;;;;5.30;2.42;;;25.40;81.10;;;;;;5091695;28;20123;-68
2023/07/16 00:39:30;;;;;;;4.97;2.30;;;25.40;81.10;;;;;;5092619;28;20094;-65
2023/07/16 00:41:56;;;;;;;5.47;2.33;;;25.20;81.00;;;;;;5094871;28;20124;-60
2023/07/16 00:44:22;;;;;;;5.45;2.45;;;25.30;80.80;;;;;;5093335;28;20462;-65
2023/07/16 00:46:48;;;;;;;5.82;2.60;;;25.50;80.90;;;;;;5089770;28;20131;-63
2023/07/16 00:49:14;;;;;;;5.28;2.13;;;25.10;80.80;;;;;;5092518;28;20040;-71
2023/07/16 00:51:39;;;;;;;7.45;2.38;;;25.50;80.90;;;;;;5094571;28;20040;-69
2023/07/16 00:54:05;;;;;;;5.85;2.40;;;25.30;80.70;;;;;;5086124;28;20497;-69
2023/07/16 00:56:31;;;;;;;8.45;2.40;;;25.30;80.70;;;;;;5077038;28;20051;-68
2023/07/16 00:58:57;;;;;;;7.85;2.70;;;25.20;80.70;;;;;;5073204;28;20489;-72
2023/07/16 01:01:22;;;;;;;5.65;2.10;;;25.30;80.60;;;;;;5093127;28;20096;-65
2023/07/16 01:03:48;;;;;;;6.60;2.40;;;25.20;80.60;;;;;;5083400;28;20086;-67
2023/07/16 01:06:33;;;;;;;6.90;2.40;;;25.20;84.10;;;;;;5094622;28;20040;-65
2023/07/16 01:09:08;;;;;;;7.32;2.45;;;25.20;81.70;;;;;;5090800;28;20118;-71
2023/07/16 01:11:37;;;;;;;5.03;2.33;;;25.20;81.00;;;;;;5082909;28;20119;-69
2023/07/16 01:14:03;;;;;;;5.50;2.45;;;25.00;80.50;;;;;;5074231;28;20069;-74
2023/07/16 01:16:29;;;;;;;7.20;2.47;;;25.30;80.60;;;;;;5080822;28;20474;-67
2023/07/16 01:18:54;;;;;;;6.32;2.30;;;25.30;80.60;;;;;;5084239;28;20040;-66
2023/07/16 01:21:22;;;;;;;6.22;2.53;;;25.50;80.60;;;;;;5092195;28;20131;-71
2023/07/16 01:24:25;;;;;;;9.20;2.85;;;25.20;80.60;;;;;;5092162;28;20043;-65
2023/07/16 01:27:04;;;;;;;8.07;2.67;;;25.00;83.60;;;;;;5062471;28;20060;-69
2023/07/16 01:29:36;;;;;;;5.93;2.65;;;25.10;79.30;;;;;;5089024;28;20120;-67
2023/07/16 01:32:03;;;;;;;8.70;3.27;;;25.00;80.50;;;;;;5079985;28;20598;-72
2023/07/16 01:34:30;;;;;;;6.47;2.63;;;25.20;80.30;;;;;;5075155;28;20048;-68
2023/07/16 01:36:56;;;;;;;6.97;2.42;;;24.90;80.30;;;;;;5092559;28;20181;-67
2023/07/16 01:39:22;;;;;;;6.40;2.40;;;25.10;80.20;;;;;;5089430;28;20118;-68
2023/07/16 01:41:48;;;;;;;6.22;2.47;;;25.00;80.00;;;;;;5093075;28;20113;-68
2023/07/16 01:44:13;;;;;;;7.20;2.90;;;25.30;80.30;;;;;;5086329;28;20037;-69
2023/07/16 01:46:39;;;;;;;6.35;2.83;;;24.90;79.90;;;;;;5093372;28;20054;-68
2023/07/16 01:49:05;;;;;;;5.28;2.58;;;25.10;79.70;;;;;;5092377;28;20056;-69
2023/07/16 01:51:31;;;;;;;5.85;2.45;;;25.00;79.90;;;;;;5092802;28;20052;-69
2023/07/16 01:53:56;;;;;;;6.10;2.47;;;25.10;80.10;;;;;;5093686;28;20505;-71
2023/07/16 01:56:22;;;;;;;7.07;2.72;;;25.00;80.00;;;;;;5074587;28;20082;-68
2023/07/16 01:58:48;;;;;;;6.20;2.45;;;25.00;80.00;;;;;;5089045;28;20039;-69
2023/07/16 02:01:13;;;;;;;4.57;2.15;;;24.80;79.80;;;;;;5087712;28;20035;-69
2023/07/16 02:03:39;;;;;;;6.22;2.67;;;24.90;79.80;;;;;;5089286;28;20044;-68
2023/07/16 02:06:05;;;;;;;6.90;2.63;;;25.10;79.90;;;;;;5092620;28;20040;-69
2023/07/16 02:08:31;;;;;;;6.43;2.40;;;25.10;80.00;;;;;;5091685;28;20122;-69
2023/07/16 02:10:56;;;;;;;7.25;2.85;;;25.20;80.10;;;;;;5092332;28;20090;-68
2023/07/16 02:13:22;;;;;;;6.95;2.72;;;24.90;80.00;;;;;;5091843;28;20389;-69
2023/07/16 02:15:48;;;;;;;6.50;2.83;;;25.00;80.00;;;;;;5080018;28;20521;-69
2023/07/16 02:18:14;;;;;;;6.90;2.53;;;25.20;80.30;;;;;;5072603;28;20079;-66
2023/07/16 02:20:39;;;;;;;6.30;2.90;;;25.10;80.10;;;;;;5091536;28;20052;-67
2023/07/16 02:23:05;;;;;;;6.70;2.65;;;24.80;80.20;;;;;;5074927;28;20119;-69
2023/07/16 02:25:32;;;;;;;10.90;2.75;;;24.70;80.10;;;;;;5093202;28;20091;-69
2023/07/16 02:27:58;;;;;;;5.40;2.70;;;24.80;83.70;;;;;;5079501;28;20044;-68
2023/07/16 02:30:24;;;;;;;10.90;2.50;;;24.80;80.30;;;;;;5087332;28;20048;-68
2023/07/16 02:32:50;;;;;;;6.75;2.35;;;24.70;80.20;;;;;;5090830;28;20047;-68
2023/07/16 02:35:15;;;;;;;6.50;2.60;;;24.80;80.20;;;;;;5092277;28;20044;-67
2023/07/16 02:37:41;;;;;;;6.43;2.75;;;24.90;80.10;;;;;;5076513;28;20103;-68
2023/07/16 02:40:07;;;;;;;5.60;2.65;;;24.70;80.20;;;;;;5090087;28;20072;-67
2023/07/16 02:42:33;;;;;;;6.43;2.75;;;24.70;79.90;;;;;;5090117;28;20047;-69
2023/07/16 02:44:59;;;;;;;5.68;2.50;;;24.70;83.10;;;;;;5092609;28;20044;-68
2023/07/16 02:47:25;;;;;;;6.65;2.70;;;24.70;80.20;;;;;;5092409;28;20056;-69
2023/07/16 02:49:52;;;;;;;6.82;2.58;;;24.80;80.10;;;;;;5091837;28;20044;-68
2023/07/16 02:52:17;;;;;;;7.22;3.40;;;24.80;80.50;;;;;;5089122;28;20067;-67
2023/07/16 02:54:43;;;;;;;8.23;3.10;;;24.60;83.60;;;;;;5047948;28;20477;-68
2023/07/16 02:57:09;;;;;;;7.05;3.00;;;24.60;80.20;;;;;;5092829;28;20044;-69
2023/07/16 02:59:35;;;;;;;6.03;2.88;;;24.80;80.30;;;;;;5073515;28;20410;-68
2023/07/16 03:02:00;;;;;;;8.23;2.50;;;24.50;80.10;;;;;;5073709;28;20036;-69
2023/07/16 03:04:26;;;;;;;7.65;3.03;;;24.50;80.00;;;;;;5095543;28;20134;-68
2023/07/16 03:06:52;;;;;;;8.55;3.40;;;24.50;80.00;;;;;;5076871;28;20044;-69
2023/07/16 03:09:18;;;;;;;6.80;2.97;;;24.70;80.10;;;;;;5085820;28;20059;-68
2023/07/16 03:11:43;;;;;;;6.07;2.90;;;24.60;80.00;;;;;;5076656;28;20044;-68
2023/07/16 03:14:09;;;;;;;6.15;3.08;;;24.50;79.90;;;;;;5094973;28;20052;-70
2023/07/16 03:16:35;;;;;;;8.48;3.42;;;24.60;79.90;;;;;;5061921;28;20044;-68
2023/07/16 03:19:00;;;;;;;6.32;3.13;;;24.60;79.90;;;;;;5078257;28;20047;-68
2023/07/16 03:21:26;;;;;;;7.38;3.10;;;24.60;79.90;;;;;;5074724;28;20044;-69
2023/07/16 03:23:52;;;;;;;5.70;3.20;;;24.60;79.80;;;;;;5096185;28;20115;-69
2023/07/16 03:26:18;;;;;;;5.90;3.35;;;24.40;79.60;;;;;;5062651;28;20506;-68
2023/07/16 03:28:43;;;;;;;7.45;3.15;;;24.70;79.70;;;;;;5076196;28;20478;-69
2023/07/16 03:31:09;;;;;;;7.22;3.05;;;24.70;79.80;;;;;;5071554;28;20385;-69
2023/07/16 03:33:35;;;;;;;7.60;3.20;;;24.40;83.00;;;;;;5096422;28;20040;-67
2023/07/16 03:36:01;;;;;;;7.45;3.30;;;24.50;82.40;;;;;;5096331;28;20063;-68
2023/07/16 03:38:26;;;;;;;6.45;3.10;;;24.50;79.40;;;;;;5094605;28;20613;-68
2023/07/16 03:40:52;;;;;;;7.53;3.60;;;24.70;79.60;;;;;;5089202;28;20414;-68
2023/07/16 03:43:18;;;;;;;5.78;3.17;;;24.70;79.50;;;;;;5095057;28;20077;-68
2023/07/16 03:45:44;;;;;;;6.60;2.92;;;24.40;79.30;;;;;;5057824;28;20119;-69
2023/07/16 03:48:09;;;;;;;8.98;4.03;;;24.60;79.60;;;;;;5094278;28;20052;-69
2023/07/16 03:50:35;;;;;;;8.98;3.40;;;24.60;79.10;;;;;;5093130;28;20052;-68
2023/07/16 03:53:03;;;;;;;8.70;3.22;;;24.60;82.60;;;;;;5094017;28;20052;-68
2023/07/16 03:55:29;;;;;;;9.80;3.92;;;24.60;79.60;;;;;;5085548;28;20107;-68
2023/07/16 03:57:55;;;;;;;8.10;3.88;;;24.50;82.10;;;;;;5075333;28;20048;-68
2023/07/16 04:00:20;;;;;;;7.10;3.50;;;24.30;79.10;;;;;;5076742;28;20051;-68
2023/07/16 04:02:46;;;;;;;6.57;3.58;;;24.60;82.70;;;;;;5092963;28;20097;-69
2023/07/16 04:05:12;;;;;;;6.65;3.47;;;24.60;79.30;;;;;;5095565;28;20508;-69
2023/07/16 04:07:38;;;;;;;9.38;4.15;;;24.70;79.20;;;;;;5095120;28;20089;-68
2023/07/16 04:10:04;;;;;;;7.05;3.38;;;24.40;79.20;;;;;;5081553;28;20044;-68
2023/07/16 04:12:30;;;;;;;8.95;3.58;;;24.50;78.80;;;;;;5092714;28;20044;-69
2023/07/16 04:14:57;;;;;;;7.47;3.67;;;24.50;79.00;;;;;;5093624;28;20051;-69
2023/07/16 04:17:22;;;;;;;8.68;3.67;;;24.50;79.30;;;;;;5093461;28;20054;-68
2023/07/16 04:19:48;;;;;;;7.47;3.40;;;24.50;78.90;;;;;;5074913;28;20045;-69
2023/07/16 04:22:14;;;;;;;7.05;3.35;;;24.50;81.40;;;;;;5081891;28;20123;-68
2023/07/16 04:24:40;;;;;;;6.07;3.13;;;24.70;78.90;;;;;;5088279;28;20133;-68
2023/07/16 04:27:05;;;;;;;7.03;3.58;;;24.60;78.80;;;;;;5095078;28;20043;-68
2023/07/16 04:29:31;;;;;;;8.80;3.60;;;24.80;78.70;;;;;;5095371;28;20040;-68
2023/07/16 04:31:57;;;;;;;7.82;3.50;;;24.90;78.80;;;;;;5093107;28;20052;-68
2023/07/16 04:34:23;;;;;;;8.88;4.05;;;24.60;78.40;;;;;;5092293;28;20035;-69
2023/07/16 04:36:48;;;;;;;7.18;3.70;;;24.50;78.10;;;;;;5074959;28;20094;-69
2023/07/16 04:39:14;;;;;;;7.90;3.90;;;24.90;78.60;;;;;;5080451;28;20123;-68
2023/07/16 04:41:40;;;;;;;7.22;3.60;;;24.80;78.30;;;;;;5095068;28;20047;-68
2023/07/16 04:44:06;;;;;;;7.70;3.90;;;24.80;81.10;;;;;;5092594;28;20040;-68
2023/07/16 04:46:32;;;;;;;8.20;3.63;;;24.60;77.70;;;;;;5094812;28;20468;-68
2023/07/16 04:48:57;;;;;;;8.50;3.95;;;24.80;78.10;;;;;;5075970;28;20181;-68
2023/07/16 04:51:23;;;;;;;8.88;3.72;;;24.90;78.10;;;;;;5088534;28;20120;-69
2023/07/16 04:53:50;;;;;;;8.65;4.03;;;24.80;78.00;;;;;;5090079;28;20465;-68
2023/07/16 04:56:16;;;;;;;9.63;4.05;;;24.80;77.80;;;;;;5094867;28;20040;-69
2023/07/16 04:58:42;;;;;;;9.98;4.00;;;24.70;77.90;;;;;;5093041;28;20046;-69
2023/07/16 05:01:08;;;;;;;9.68;4.00;;;24.90;77.70;;;;;;5075944;28;20422;-68
2023/07/16 05:03:34;;;;;;;7.93;3.90;;;24.80;77.90;;;;;;5073894;28;20039;-67
2023/07/16 05:06:00;;;;;;;9.80;3.78;;;24.90;80.70;;;;;;5094083;28;20043;-68
2023/07/16 05:08:26;;;;;;;11.07;4.38;;;25.10;77.50;;;;;;5092075;28;20097;-69
2023/07/16 05:10:52;;;;;;;8.32;3.80;;;25.40;80.40;;;;;;5073984;28;20135;-69
2023/07/16 05:13:18;;;;;;;8.98;3.85;;;25.20;77.10;;;;;;5080242;28;20044;-68
2023/07/16 05:15:44;;;;;;;7.35;3.72;;;25.30;76.90;;;;;;5088994;28;20051;-68
2023/07/16 05:18:09;;;;;;;7.85;3.70;;;25.60;76.70;;;;;;5093054;28;20166;-68
2023/07/16 05:20:35;;;;;;;7.20;3.65;;;25.40;76.30;;;;;;5094288;28;20127;-69
2023/07/16 05:23:01;;;;;;;6.65;3.38;;;25.70;76.40;;;;;;5089580;28;20047;-68
2023/07/16 05:25:27;;;;;;;8.38;3.78;;;25.60;76.20;;;;;;5091329;28;20474;-68
2023/07/16 05:27:53;;;;;;;7.90;4.03;;;25.90;76.50;;;;;;5073660;28;20127;-68
2023/07/16 05:30:18;;;;;;;7.90;3.60;;;26.00;76.10;;;;;;5073589;28;20098;-69
2023/07/16 05:32:44;;;;;;;7.53;3.55;;;26.00;76.00;;;;;;5076690;28;20601;-69
2023/07/16 05:35:10;;;;;;;6.45;3.38;;;26.20;75.80;;;;;;5094108;28;20043;-69
2023/07/16 05:37:36;;;;;;;6.57;3.25;;;26.20;75.60;;;;;;5088125;28;20049;-68
2023/07/16 05:40:03;;;;;;;8.45;3.88;;;26.40;75.30;;;;;;5073519;28;20041;-68
2023/07/16 05:42:29;;;;;;;8.77;3.88;;;26.60;75.50;;;;;;5056349;28;20115;-69
2023/07/16 05:44:56;;;;;;;7.30;3.47;;;26.50;75.00;;;;;;5090755;28;20163;-69
2023/07/16 05:47:22;;;;;;;9.15;3.85;;;26.50;74.80;;;;;;5092790;28;20087;-69
2023/07/16 05:49:48;;;;;;;10.75;3.95;;;26.70;74.30;;;;;;5088760;28;20040;-69
2023/07/16 05:52:13;;;;;;;9.00;3.80;;;26.70;74.40;;;;;;5075876;28;20802;-68
2023/07/16 05:54:39;;;;;;;7.20;3.78;;;26.80;74.10;;;;;;5090551;28;20078;-68
2023/07/16 05:57:05;;;;;;;7.93;3.50;;;26.90;74.70;;;;;;5093424;28;20040;-68
2023/07/16 05:59:36;;;;;;;8.30;3.78;;;26.90;73.50;;;;;;5090406;28;20150;-69
2023/07/16 06:02:03;;;;;;;7.40;3.85;;;27.10;72.80;;;;;;5073366;28;20095;-64
2023/07/16 06:04:29;;;;;;;8.38;4.03;;;27.10;73.60;;;;;;5081472;28;20111;-65
2023/07/16 06:06:56;;;;;;;6.65;3.50;;;26.80;73.10;;;;;;5074793;28;20040;-68
2023/07/16 06:09:21;;;;;;;7.00;3.70;;;27.00;73.40;;;;;;5093502;28;20375;-69
2023/07/16 06:11:48;;;;;;;8.60;3.60;;;27.00;73.00;;;;;;5092424;28;20059;-69
2023/07/16 06:14:13;;;;;;;7.70;3.42;;;27.20;72.80;;;;;;5091014;28;20048;-69
2023/07/16 06:16:39;;;;;;;7.63;3.20;;;26.80;72.60;;;;;;5089179;28;20040;-68
2023/07/16 06:19:05;;;;;;;8.27;3.40;;;27.20;72.90;;;;;;5078800;28;20047;-68
2023/07/16 06:21:31;;;;;;;9.48;3.33;;;27.20;72.80;;;;;;5081573;28;20182;-69
2023/07/16 06:23:56;;;;;;;7.40;3.45;;;27.20;72.60;;;;;;5072692;28;20055;-68
2023/07/16 06:26:22;;;;;;;6.60;3.53;;;27.20;72.60;;;;;;5090906;28;20056;-69
2023/07/16 06:28:49;;;;;;;7.38;3.53;;;27.50;72.60;;;;;;5093190;28;20048;-69
2023/07/16 06:31:18;;;;;;;6.65;3.30;;;27.20;72.40;;;;;;5092864;28;20048;-68
2023/07/16 06:33:46;;;;;;;6.75;3.35;;;27.20;71.90;;;;;;5089419;28;20438;-69
2023/07/16 06:36:12;;;;;;;7.68;3.42;;;27.30;72.30;;;;;;5083345;28;20040;-68
2023/07/16 06:38:38;;;;;;;8.88;3.33;;;27.10;72.30;;;;;;5091475;28;20148;-69
2023/07/16 06:41:04;;;;;;;9.00;3.25;;;27.30;72.10;;;;;;5092644;28;20083;-68
2023/07/16 06:43:30;;;;;;;7.70;3.05;;;27.50;72.10;;;;;;5092937;28;20067;-69
2023/07/16 06:45:56;;;;;;;8.10;3.50;;;27.80;72.10;;;;;;5089858;28;20048;-69
2023/07/16 06:48:22;;;;;;;7.53;3.42;;;27.70;72.00;;;;;;5091639;28;20048;-69
2023/07/16 06:50:50;;;;;;;7.13;3.40;;;27.30;71.40;;;;;;5086588;28;20437;-68
2023/07/16 06:53:15;;;;;;;8.05;3.30;;;27.40;71.90;;;;;;5072427;28;20054;-68
2023/07/16 06:55:41;;;;;;;6.93;2.90;;;27.50;74.90;;;;;;5083311;28;20055;-67
2023/07/16 06:58:10;;;;;;;6.93;3.20;;;27.70;71.80;;;;;;5092539;28;20086;-67
2023/07/16 07:00:36;;;;;;;11.60;3.95;;;27.70;72.10;;;;;;5091708;28;20375;-67
2023/07/16 07:03:02;;;;;;;9.55;3.78;;;27.60;71.40;;;;;;5092085;28;20051;-67
2023/07/16 07:05:28;;;;;;;7.40;3.70;;;27.40;71.00;;;;;;5090722;28;20524;-67
2023/07/16 07:07:54;;;;;;;8.05;3.72;;;27.60;71.90;;;;;;5084026;28;20037;-67
2023/07/16 07:10:20;;;;;;;8.57;3.72;;;27.30;71.20;;;;;;5092404;28;20036;-67
2023/07/16 07:12:46;;;;;;;8.52;3.88;;;27.30;71.30;;;;;;5092724;28;20043;-67
2023/07/16 07:15:12;;;;;;;9.48;3.63;;;27.30;71.40;;;;;;5090889;28;20468;-67
2023/07/16 07:17:37;;;;;;;9.20;4.00;;;27.20;71.20;;;;;;5089320;28;20040;-65
2023/07/16 07:20:04;;;;;;;7.47;3.80;;;26.80;71.10;;;;;;5086469;28;20055;-63
2023/07/16 07:22:30;;;;;;;7.65;3.67;;;27.00;71.00;;;;;;5091565;28;20627;-68
2023/07/16 07:24:56;;;;;;;7.15;3.50;;;27.00;71.60;;;;;;5085759;28;20048;-67
2023/07/16 07:27:21;;;;;;;9.20;3.70;;;27.00;71.60;;;;;;5091296;28;20040;-67
2023/07/16 07:29:51;;;;;;;8.40;4.28;;;26.80;71.30;;;;;;5089812;28;20375;-68
2023/07/16 07:32:20;;;;;;;8.40;4.03;;;27.20;71.60;;;;;;5083717;28;20044;-67
2023/07/16 07:34:46;;;;;;;9.90;4.35;;;26.90;70.20;;;;;;5078592;28;20048;-68
2023/07/16 07:37:12;;;;;;;10.80;4.03;;;26.80;71.30;;;;;;5090922;28;20541;-68
2023/07/16 07:39:38;;;;;;;9.77;3.97;;;26.90;71.80;;;;;;5090825;28;20051;-67
2023/07/16 07:42:04;;;;;;;7.88;4.05;;;26.80;71.70;;;;;;5086259;28;20129;-67
2023/07/16 07:44:30;;;;;;;9.75;4.38;;;26.70;71.50;;;;;;5092100;28;20050;-67
2023/07/16 07:46:56;;;;;;;8.95;3.95;;;26.70;71.80;;;;;;5089716;28;20052;-67
2023/07/16 07:49:21;;;;;;;8.70;3.80;;;26.70;71.60;;;;;;5076478;28;20040;-68
2023/07/16 07:51:49;;;;;;;7.70;4.30;;;26.80;71.70;;;;;;5083019;28;20392;-63
2023/07/16 07:54:15;;;;;;;8.70;4.30;;;26.90;71.80;;;;;;5089428;28;20036;-66
2023/07/16 07:56:41;;;;;;;7.18;4.45;;;26.70;71.70;;;;;;5088344;28;20051;-66
2023/07/16 07:59:07;;;;;;;6.85;3.80;;;26.90;71.50;;;;;;5086413;28;20044;-67
2023/07/16 08:01:33;;;;;;;8.68;4.05;;;27.00;71.50;;;;;;5085275;28;20558;-61
2023/07/16 08:03:59;;;;;;;6.07;3.80;;;26.90;71.00;;;;;;5080841;28;20032;-64
2023/07/16 08:06:26;;;;;;;6.60;3.90;;;27.10;70.80;;;;;;5082180;28;20044;-61
2023/07/16 08:08:51;;;;;;;8.05;4.15;;;27.10;71.00;;;;;;5084854;28;20048;-60
2023/07/16 08:11:17;;;;;;;7.00;3.90;;;27.20;70.80;;;;;;5083842;28;20040;-64
2023/07/16 08:13:43;;;;;;;8.10;4.25;;;26.90;70.40;;;;;;5065900;28;20080;-68
2023/07/16 08:16:09;;;;;;;8.63;4.40;;;27.10;70.40;;;;;;5082371;28;20097;-67
2023/07/16 08:18:35;;;;;;;8.25;4.00;;;27.40;70.60;;;;;;5088503;28;20051;-67
2023/07/16 08:21:01;;;;;;;7.72;4.20;;;27.20;70.20;;;;;;5092376;28;20409;-67
2023/07/16 08:23:26;;;;;;;7.90;3.83;;;27.30;70.40;;;;;;5094809;28;20485;-67
2023/07/16 08:25:52;;;;;;;8.07;4.38;;;27.30;70.40;;;;;;5093583;28;20043;-67
2023/07/16 08:28:18;;;;;;;7.70;4.00;;;27.20;70.30;;;;;;5093132;28;20040;-68
2023/07/16 08:30:47;;;;;;;8.23;4.20;;;27.10;70.30;;;;;;5094546;28;20040;-67
2023/07/16 08:33:14;;;;;;;9.55;4.15;;;27.20;70.70;;;;;;5086127;28;20040;-68
2023/07/16 08:35:40;;;;;;;9.68;4.47;;;27.00;70.50;;;;;;5086613;28;20082;-68
2023/07/16 08:38:09;;;;;;;7.88;4.50;;;27.10;71.40;;;;;;5092139;28;20207;-68
2023/07/16 08:40:38;;;;;;;9.70;4.22;;;27.00;69.70;;;;;;5093742;28;20044;-68
2023/07/16 08:43:06;;;;;;;7.40;4.05;;;27.00;70.70;;;;;;5094433;28;20119;-67
2023/07/16 08:45:31;;;;;;;7.45;4.00;;;27.00;70.20;;;;;;5092223;28;20040;-68
2023/07/16 08:47:57;;;;;;;6.72;4.00;;;27.20;70.20;;;;;;5092119;28;20090;-68
2023/07/16 08:50:24;;;;;;;8.73;3.78;;;27.10;70.20;;;;;;5081428;28;22164;-66
2023/07/16 08:52:50;;;;;;;9.85;4.53;;;26.90;69.90;;;;;;5092462;28;20073;-62
2023/07/16 08:55:16;;;;;;;8.63;4.45;;;27.20;70.30;;;;;;5090935;28;20052;-67
2023/07/16 08:57:42;;;;;;;8.48;3.83;;;26.90;70.20;;;;;;5076069;28;20042;-59
2023/07/16 09:00:09;;;;;;;7.63;4.13;;;27.00;70.20;;;;;;5091168;28;20127;-66
2023/07/16 09:02:34;;;;;;;7.28;4.18;;;27.00;70.00;;;;;;5094773;28;20101;-60
2023/07/16 09:05:00;;;;;;;7.40;4.13;;;27.10;70.40;;;;;;5091475;28;20485;-66
2023/07/16 09:07:27;;;;;;;7.30;3.60;;;26.90;69.80;;;;;;5091646;28;20043;-60
2023/07/16 09:09:59;;;;;;;8.50;3.95;;;26.90;70.20;;;;;;5091919;28;20478;-61
2023/07/16 09:12:25;;;;;;;8.48;4.47;;;27.00;70.80;;;;;;5090802;28;20526;-64
2023/07/16 09:14:51;;;;;;;7.28;4.20;;;27.10;70.60;;;;;;5089220;28;20108;-59
2023/07/16 09:17:23;;;;;;;7.25;3.90;;;27.00;70.40;;;;;;5089666;28;20432;-66
2023/07/16 09:19:51;;;;;;;7.43;4.22;;;26.90;70.70;;;;;;5083135;28;20048;-63
2023/07/16 09:22:18;;;;;;;7.80;4.22;;;27.00;70.80;;;;;;5103523;28;20101;-60
2023/07/16 09:24:46;;;;;;;8.38;4.20;;;27.00;70.70;;;;;;5095926;28;20426;-60
2023/07/16 09:27:12;;;;;;;5.78;3.72;;;26.90;70.70;;;;;;5091555;28;20032;-60
2023/07/16 09:29:38;;;;;;;7.57;3.90;;;27.10;70.40;;;;;;5094135;28;20497;-68
2023/07/16 09:32:07;;;;;;;8.20;4.30;;;27.00;70.30;;;;;;5093757;28;20051;-62
2023/07/16 09:34:33;;;;;;;7.43;3.65;;;27.10;69.80;;;;;;5087768;28;20504;-68
2023/07/16 09:36:59;;;;;;;9.25;4.35;;;27.40;70.20;;;;;;5072311;28;20044;-69
2023/07/16 09:39:26;;;;;;;7.22;4.32;;;27.30;70.50;;;;;;5093006;28;20052;-69
2023/07/16 09:41:51;;;;;;;11.15;4.50;;;27.20;70.10;;;;;;5088746;28;20074;-68
2023/07/16 09:44:17;;;;;;;7.82;4.20;;;27.30;70.00;;;;;;5088157;28;20065;-64
2023/07/16 09:46:44;;;;;;;8.95;3.97;;;27.10;69.80;;;;;;5090127;28;20047;-60
2023/07/16 09:49:10;;;;;;;8.25;4.10;;;27.10;69.70;;;;;;5070304;28;20390;-59
2023/07/16 09:51:36;;;;;;;7.35;4.10;;;27.40;70.00;;;;;;5109898;28;20040;-60
2023/07/16 09:54:02;;;;;;;7.97;4.32;;;27.30;70.00;;;;;;5110879;28;20071;-59
2023/07/16 09:56:40;;;;;;;8.15;4.75;;;27.10;69.80;;;;;;5089969;28;20458;-60
2023/07/16 09:59:09;;;;;;;10.13;4.35;;;27.20;70.20;;;;;;5068340;28;20032;-62
2023/07/16 10:01:39;;;;;;;8.45;4.45;;;26.80;69.90;;;;;;5082341;28;20494;-60
2023/07/16 10:04:38;;;;;;;8.98;4.45;;;26.90;69.90;;;;;;5090711;28;20044;-60
2023/07/16 10:07:05;;;;;;;12.30;4.45;;;26.70;68.20;;;;;;5091759;28;20125;-60
2023/07/16 10:09:41;;;;;;;10.93;4.80;;;26.50;69.60;;;;;;5091299;28;20044;-59
2023/07/16 10:12:14;;;;;;;8.90;4.20;;;26.40;70.10;;;;;;5092522;28;20412;-62
2023/07/16 10:14:47;;;;;;;10.45;4.68;;;26.20;70.20;;;;;;5071005;28;20502;-59
2023/07/16 10:17:34;;;;;;;8.98;4.60;;;26.10;70.40;;;;;;5057896;28;20043;-60
2023/07/16 10:20:07;;;;;;;8.68;4.55;;;26.20;70.60;;;;;;5092492;28;20040;-59
2023/07/16 10:22:38;;;;;;;8.68;4.43;;;26.00;69.20;;;;;;5075037;28;20169;-61
2023/07/16 10:25:08;;;;;;;9.07;4.53;;;25.90;70.90;;;;;;5081845;28;20044;-68
2023/07/16 10:27:34;;;;;;;9.05;4.55;;;25.80;70.00;;;;;;5080349;28;20051;-60
2023/07/16 10:30:02;;;;;;;11.38;4.30;;;26.00;70.60;;;;;;5084169;28;20469;-61
2023/07/16 10:32:29;;;;;;;10.18;4.50;;;26.10;70.90;;;;;;5089416;28;20406;-60
2023/07/16 10:34:54;;;;;;;8.77;4.80;;;26.10;71.00;;;;;;5092865;28;20044;-59
2023/07/16 10:37:20;;;;;;;10.40;4.53;;;26.00;70.60;;;;;;5073427;28;20034;-60
2023/07/16 10:39:50;;;;;;;7.85;3.92;;;26.10;70.70;;;;;;5092311;28;20052;-63
2023/07/16 10:42:16;;;;;;;8.73;4.28;;;26.20;73.60;;;;;;5091155;28;20037;-61
2023/07/16 10:44:42;;;;;;;8.80;4.22;;;26.30;70.40;;;;;;5091525;28;20048;-65
2023/07/16 10:47:09;;;;;;;7.82;4.18;;;26.10;70.00;;;;;;5092421;28;20048;-60
2023/07/16 10:49:35;;;;;;;8.18;3.95;;;26.40;70.20;;;;;;5079420;28;20048;-59
2023/07/16 10:52:01;;;;;;;8.27;4.38;;;26.20;69.70;;;;;;5072717;28;20044;-65
2023/07/16 10:54:27;;;;;;;9.30;4.00;;;26.30;70.10;;;;;;5090287;28;20044;-61
2023/07/16 10:56:53;;;;;;;7.82;4.30;;;26.10;69.60;;;;;;5092839;28;20059;-60
2023/07/16 10:59:19;;;;;;;8.95;4.40;;;26.20;69.90;;;;;;5089760;28;20054;-68
2023/07/16 11:01:45;;;;;;;8.05;4.20;;;26.10;69.50;;;;;;5072945;28;20044;-60
2023/07/16 11:04:11;;;;;;;11.15;4.00;;;26.20;69.80;;;;;;5088762;28;20044;-60
2023/07/16 11:06:36;;;;;;;7.30;4.35;;;26.60;70.00;;;;;;5080278;28;20049;-59
2023/07/16 11:09:09;;;;;;;7.22;4.43;;;26.20;69.70;;;;;;5072514;28;20123;-62
2023/07/16 11:11:35;;;;;;;;;;;26.50;69.70;;;;;;5072957;28;20075;-60
2023/07/16 11:14:04;;;;;;;8.32;4.13;;;26.50;70.40;;;;;;5084234;28;19920;-66
2023/07/16 11:16:34;;;;;;;8.40;4.20;;;26.30;70.50;;;;;;5092338;28;20443;-60
2023/07/16 11:19:03;;;;;;;6.43;3.78;;;26.30;70.60;;;;;;5089772;28;20051;-65
2023/07/16 11:21:29;;;;;;;7.28;4.07;;;26.30;70.50;;;;;;5091025;28;20619;-59
2023/07/16 11:23:55;;;;;;;7.78;4.18;;;26.20;70.10;;;;;;5087739;28;20115;-64
2023/07/16 11:26:20;;;;;;;8.52;4.13;;;26.20;70.20;;;;;;5096624;28;20051;-60
2023/07/16 11:28:49;;;;;;;8.38;3.90;;;26.40;70.10;;;;;;5095371;28;20493;-59
2023/07/16 11:31:15;;;;;;;9.20;4.47;;;26.00;70.20;;;;;;5078401;28;20374;-65
2023/07/16 11:33:45;;;;;;;7.28;4.05;;;26.10;70.40;;;;;;5095000;28;20131;-61
2023/07/16 11:36:11;;;;;;;8.75;4.40;;;26.30;70.90;;;;;;5079906;28;20166;-65
2023/07/16 11:38:37;;;;;;;9.23;4.18;;;26.20;70.60;;;;;;5096372;28;20075;-65
2023/07/16 11:41:03;;;;;;;6.57;3.88;;;26.20;70.80;;;;;;5080625;28;20446;-67
2023/07/16 11:43:33;;;;;;;7.32;3.92;;;26.50;71.00;;;;;;5076617;28;20127;-65
2023/07/16 11:45:59;;;;;;;6.18;3.85;;;26.20;71.00;;;;;;5095632;28;20393;-63
2023/07/16 11:48:25;;;;;;;7.30;4.07;;;26.30;70.80;;;;;;5095749;28;20052;-61
2023/07/16 11:50:50;;;;;;;7.07;4.13;;;26.30;70.50;;;;;;5095206;28;20052;-68
2023/07/16 11:53:16;;;;;;;8.43;4.00;;;26.30;70.80;;;;;;5095833;28;20550;-64
2023/07/16 11:55:42;;;;;;;7.75;4.32;;;26.30;70.70;;;;;;5095399;28;20040;-61
2023/07/16 11:58:08;;;;;;;8.43;3.97;;;26.20;70.60;;;;;;5093371;28;20089;-61
2023/07/16 12:00:34;;;;;;;8.13;3.90;;;26.30;70.70;;;;;;5091896;28;20504;-60
2023/07/16 12:03:00;;;;;;;8.25;4.30;;;26.00;70.50;;;;;;5095916;28;20051;-59
2023/07/16 12:05:27;;;;;;;7.80;3.92;;;26.30;70.80;;;;;;5095931;28;20486;-60
2023/07/16 12:07:53;;;;;;;8.50;4.00;;;26.00;70.70;;;;;;5094773;28;20486;-66
2023/07/16 12:10:19;;;;;;;6.75;4.22;;;26.10;70.40;;;;;;5094874;28;20036;-63
2023/07/16 12:12:45;;;;;;;9.32;4.03;;;26.00;70.70;;;;;;5095767;28;20397;-61
2023/07/16 12:15:12;;;;;;;7.38;4.10;;;26.30;70.60;;;;;;5078867;28;20040;-61
2023/07/16 12:17:37;;;;;;;7.10;3.97;;;26.50;71.30;;;;;;5088725;28;20048;-60
2023/07/16 12:20:04;;;;;;;7.00;4.10;;;26.10;70.90;;;;;;5094115;28;20100;-70
2023/07/16 12:22:29;;;;;;;7.03;3.83;;;26.00;70.60;;;;;;5095236;28;20040;-59
2023/07/16 12:24:55;;;;;;;6.07;3.80;;;26.10;71.10;;;;;;5095478;28;20051;-68
2023/07/16 12:27:21;;;;;;;7.75;3.83;;;26.10;70.70;;;;;;5094752;28;20040;-60
2023/07/16 12:29:47;;;;;;;8.05;4.00;;;26.00;71.00;;;;;;5093880;28;20077;-64
2023/07/16 12:32:13;;;;;;;8.30;4.00;;;26.10;71.20;;;;;;5085426;28;20036;-61
2023/07/16 12:34:39;;;;;;;7.63;3.60;;;26.20;71.20;;;;;;5093088;28;20079;-59
2023/07/16 12:37:06;;;;;;;7.50;3.85;;;26.20;71.20;;;;;;5094950;28;20068;-61
2023/07/16 12:39:32;;;;;;;6.55;3.65;;;26.30;71.50;;;;;;5094851;28;20055;-60
2023/07/16 12:41:58;;;;;;;8.23;4.28;;;26.40;71.60;;;;;;5093527;28;20101;-63